Terminal Aerodrome Forecast
Issued by NWS Wilmington, NC

Home | Current Version | Previous Version | Text Only | Print | Product List | Glossary On
Versions: 1 2 3 4 5 6 7 8 9 10 11 12 13
000
FTUS42 KILM 120524
TAFLBT
TAF
KLBT 120524Z 1206/1306 VRB03KT P6SM SKC
     FM121300 06008KT 5SM -FZRA SCT010 OVC015
     FM121700 03007KT 6SM -RA BR OVC015
     FM122200 36005KT P6SM VCSH OVC025
     FM130000 VRB03KT P6SM FEW030 SCT050=

USA.gov is the U.S. government's official web portal to all federal, state and local government web resources and services.